Accueil
METAR-TAF:

METAR-TAF

Aéroports :

Aéroport de Carcassonne Salvaza

Carcassonne, France

latitude: 43-13N, longitude: 002-19E, altitude: 130 m

Observation

Le bulletin a été fait il y a 28 minutes, à 03:30 UTC
Vent 5 kt de ouest
Température 15°C
Humidité 88%
Pression 1017 hPa
Visibilité 10 km ou plus
pas de nuages en-dessous de 1500 mètres et pas de cumulonimbus.

METAR: LFMK 020330Z AUTO 26005KT CAVOK 15/13 Q1017 NOSIG

Heure: 05:58 (03:58 UTC)

Prévision

Le bulletin a été fait il y a 1 heure et 58 minutes, à 02:00 UTC
Prévision valable du 02 à 03 UTC au 03 à 03 UTC
Vent 6 kt de ouest
Visibilité 10 km ou plus
pas de nuages en-dessous de 1500 mètres et pas de cumulonimbus.
Temporairement
du 02 à 12 UTC au 02 à 17 UTC
Vent 10 kt de ouest/nord-ouest

TAF: LFMK 020200Z 0203/0303 27006KT CAVOK TEMPO 0212/0217 30010KT

Observations et prévisions météorologiques de plus de 4000 aéroports (messages METAR et TAF).

Les stations disponibles sont représentées par des disques jaunes et rouges sur la carte.

Passer la souris dessus pour voir le nom de la station.

Cliquer dessus pour voir les observations et prévisions météorologiques.

Pour changer de carte: cliquez sur les boutons verts avec une croix noire pour zoomer, sur le bouton vert avec un tiret pour effectuer un zoom arrière, ou sur les flèches vertes pour les cartes adjacentes.


METAR-TAF: